sensor_id;sensor_type;location;lat;lon;timestamp;temperature;humidity
9949;DHT22;5013;51.840;8.276;2022-07-05T00:01:05;17.10;26.20
9949;DHT22;5013;51.840;8.276;2022-07-05T00:03:31;17.00;27.10
9949;DHT22;5013;51.840;8.276;2022-07-05T00:05:57;16.90;99.90
9949;DHT22;5013;51.840;8.276;2022-07-05T00:08:23;16.90;99.90
9949;DHT22;5013;51.840;8.276;2022-07-05T00:10:49;16.90;99.90
9949;DHT22;5013;51.840;8.276;2022-07-05T00:13:15;16.90;99.90
9949;DHT22;5013;51.840;8.276;2022-07-05T00:15:41;16.80;99.90
9949;DHT22;5013;51.840;8.276;2022-07-05T00:18:07;16.80;1.00
9949;DHT22;5013;51.840;8.276;2022-07-05T00:20:34;16.70;1.00
9949;DHT22;5013;51.840;8.276;2022-07-05T00:23:00;16.70;1.00
9949;DHT22;5013;51.840;8.276;2022-07-05T00:25:25;16.70;1.00
9949;DHT22;5013;51.840;8.276;2022-07-05T00:27:51;16.70;1.00
9949;DHT22;5013;51.840;8.276;2022-07-05T00:30:19;16.70;1.00
9949;DHT22;5013;51.840;8.276;2022-07-05T00:32:45;16.70;1.00
9949;DHT22;5013;51.840;8.276;2022-07-05T00:35:11;16.60;1.00
9949;DHT22;5013;51.840;8.276;2022-07-05T00:37:37;16.60;1.00
9949;DHT22;5013;51.840;8.276;2022-07-05T00:40:04;16.70;1.00
9949;DHT22;5013;51.840;8.276;2022-07-05T00:42:30;16.70;1.00
9949;DHT22;5013;51.840;8.276;2022-07-05T00:44:55;16.80;1.00
9949;DHT22;5013;51.840;8.276;2022-07-05T00:47:21;16.80;99.90
9949;DHT22;5013;51.840;8.276;2022-07-05T00:49:47;16.80;99.90
9949;DHT22;5013;51.840;8.276;2022-07-05T00:52:13;16.70;1.00
9949;DHT22;5013;51.840;8.276;2022-07-05T00:54:39;16.70;1.00
9949;DHT22;5013;51.840;8.276;2022-07-05T00:57:06;16.60;1.00
9949;DHT22;5013;51.840;8.276;2022-07-05T00:59:32;16.50;1.00
9949;DHT22;5013;51.840;8.276;2022-07-05T01:01:58;16.50;99.90
9949;DHT22;5013;51.840;8.276;2022-07-05T01:04:24;16.50;1.00
9949;DHT22;5013;51.840;8.276;2022-07-05T01:06:54;16.50;1.00
9949;DHT22;5013;51.840;8.276;2022-07-05T01:09:21;16.60;1.00
9949;DHT22;5013;51.840;8.276;2022-07-05T01:11:49;16.50;1.00
9949;DHT22;5013;51.840;8.276;2022-07-05T01:14:22;16.50;1.00
9949;DHT22;5013;51.840;8.276;2022-07-05T01:16:49;16.50;1.00
9949;DHT22;5013;51.840;8.276;2022-07-05T01:19:15;16.50;1.00
9949;DHT22;5013;51.840;8.276;2022-07-05T01:21:44;16.50;1.00
9949;DHT22;5013;51.840;8.276;2022-07-05T01:24:13;16.50;1.00
9949;DHT22;5013;51.840;8.276;2022-07-05T01:26:40;16.40;1.00
9949;DHT22;5013;51.840;8.276;2022-07-05T01:29:07;16.50;1.00
9949;DHT22;5013;51.840;8.276;2022-07-05T01:31:36;16.50;1.00
9949;DHT22;5013;51.840;8.276;2022-07-05T01:34:02;16.60;1.00
9949;DHT22;5013;51.840;8.276;2022-07-05T01:36:27;16.60;1.00
9949;DHT22;5013;51.840;8.276;2022-07-05T01:38:53;16.70;1.00
9949;DHT22;5013;51.840;8.276;2022-07-05T01:41:19;16.70;1.00
9949;DHT22;5013;51.840;8.276;2022-07-05T01:43:45;16.70;1.00
9949;DHT22;5013;51.840;8.276;2022-07-05T01:46:11;16.70;1.00
9949;DHT22;5013;51.840;8.276;2022-07-05T01:48:39;16.70;99.90
9949;DHT22;5013;51.840;8.276;2022-07-05T01:51:24;16.70;89.70
9949;DHT22;5013;51.840;8.276;2022-07-05T01:53:52;16.70;33.80
9949;DHT22;5013;51.840;8.276;2022-07-05T01:56:18;16.50;99.90
9949;DHT22;5013;51.840;8.276;2022-07-05T01:58:45;16.50;1.00
9949;DHT22;5013;51.840;8.276;2022-07-05T02:01:10;16.60;1.00
9949;DHT22;5013;51.840;8.276;2022-07-05T02:03:37;16.50;1.00
9949;DHT22;5013;51.840;8.276;2022-07-05T02:06:04;16.40;1.00
9949;DHT22;5013;51.840;8.276;2022-07-05T02:08:31;16.40;1.00
9949;DHT22;5013;51.840;8.276;2022-07-05T02:10:57;16.40;1.00
9949;DHT22;5013;51.840;8.276;2022-07-05T02:13:23;16.50;1.00
9949;DHT22;5013;51.840;8.276;2022-07-05T02:15:49;16.50;99.90
9949;DHT22;5013;51.840;8.276;2022-07-05T02:18:15;16.50;1.00
9949;DHT22;5013;51.840;8.276;2022-07-05T02:20:41;16.50;1.00
9949;DHT22;5013;51.840;8.276;2022-07-05T02:23:07;16.50;1.00
9949;DHT22;5013;51.840;8.276;2022-07-05T02:25:34;16.50;1.00
9949;DHT22;5013;51.840;8.276;2022-07-05T02:28:00;16.50;1.00
9949;DHT22;5013;51.840;8.276;2022-07-05T02:30:26;16.60;99.90
9949;DHT22;5013;51.840;8.276;2022-07-05T02:32:52;16.50;1.00
9949;DHT22;5013;51.840;8.276;2022-07-05T02:35:18;16.50;1.00
9949;DHT22;5013;51.840;8.276;2022-07-05T02:37:43;16.50;99.90
9949;DHT22;5013;51.840;8.276;2022-07-05T02:40:11;16.40;1.00
9949;DHT22;5013;51.840;8.276;2022-07-05T02:42:38;16.50;1.00
9949;DHT22;5013;51.840;8.276;2022-07-05T02:45:05;16.50;1.00
9949;DHT22;5013;51.840;8.276;2022-07-05T02:47:32;16.60;99.90
9949;DHT22;5013;51.840;8.276;2022-07-05T02:50:02;16.60;99.90
9949;DHT22;5013;51.840;8.276;2022-07-05T02:52:28;16.60;1.00
9949;DHT22;5013;51.840;8.276;2022-07-05T02:55:28;16.50;1.00
9949;DHT22;5013;51.840;8.276;2022-07-05T02:57:53;16.50;1.00
9949;DHT22;5013;51.840;8.276;2022-07-05T03:00:19;16.60;1.00
9949;DHT22;5013;51.840;8.276;2022-07-05T03:02:45;16.60;23.30
9949;DHT22;5013;51.840;8.276;2022-07-05T03:05:10;16.60;1.00
9949;DHT22;5013;51.840;8.276;2022-07-05T03:07:36;16.70;1.00
9949;DHT22;5013;51.840;8.276;2022-07-05T03:10:02;16.70;99.90
9949;DHT22;5013;51.840;8.276;2022-07-05T03:12:28;16.70;99.90
9949;DHT22;5013;51.840;8.276;2022-07-05T03:14:53;16.70;99.90
9949;DHT22;5013;51.840;8.276;2022-07-05T03:17:19;16.70;1.00
9949;DHT22;5013;51.840;8.276;2022-07-05T03:19:45;16.70;1.00
9949;DHT22;5013;51.840;8.276;2022-07-05T03:22:10;16.60;99.90
9949;DHT22;5013;51.840;8.276;2022-07-05T03:24:36;16.60;1.00
9949;DHT22;5013;51.840;8.276;2022-07-05T03:27:02;16.60;1.00
9949;DHT22;5013;51.840;8.276;2022-07-05T03:29:28;16.70;1.00
9949;DHT22;5013;51.840;8.276;2022-07-05T03:31:53;16.70;1.00
9949;DHT22;5013;51.840;8.276;2022-07-05T03:34:19;16.60;99.90
9949;DHT22;5013;51.840;8.276;2022-07-05T03:36:45;16.50;1.00
9949;DHT22;5013;51.840;8.276;2022-07-05T03:39:10;16.50;99.90
9949;DHT22;5013;51.840;8.276;2022-07-05T03:41:36;16.40;99.90
9949;DHT22;5013;51.840;8.276;2022-07-05T03:44:01;16.40;37.20
9949;DHT22;5013;51.840;8.276;2022-07-05T03:46:27;16.60;1.00
9949;DHT22;5013;51.840;8.276;2022-07-05T03:48:53;16.50;99.90
9949;DHT22;5013;51.840;8.276;2022-07-05T03:51:18;16.60;99.90
9949;DHT22;5013;51.840;8.276;2022-07-05T03:53:44;16.60;99.90
9949;DHT22;5013;51.840;8.276;2022-07-05T03:56:10;16.50;1.00
9949;DHT22;5013;51.840;8.276;2022-07-05T03:58:36;16.40;99.90
9949;DHT22;5013;51.840;8.276;2022-07-05T04:01:02;16.40;1.00
9949;DHT22;5013;51.840;8.276;2022-07-05T04:03:27;16.40;1.00
9949;DHT22;5013;51.840;8.276;2022-07-05T04:05:53;16.50;1.00
9949;DHT22;5013;51.840;8.276;2022-07-05T04:08:19;16.30;1.00
9949;DHT22;5013;51.840;8.276;2022-07-05T04:10:44;16.40;1.00
9949;DHT22;5013;51.840;8.276;2022-07-05T04:13:10;16.30;1.00
9949;DHT22;5013;51.840;8.276;2022-07-05T04:15:36;16.50;10.50
9949;DHT22;5013;51.840;8.276;2022-07-05T04:18:02;16.60;1.00
9949;DHT22;5013;51.840;8.276;2022-07-05T04:20:27;16.70;1.00
9949;DHT22;5013;51.840;8.276;2022-07-05T04:22:55;16.70;1.00
9949;DHT22;5013;51.840;8.276;2022-07-05T04:25:21;16.80;1.00
9949;DHT22;5013;51.840;8.276;2022-07-05T04:27:52;16.80;1.00
9949;DHT22;5013;51.840;8.276;2022-07-05T04:30:21;16.90;1.00
9949;DHT22;5013;51.840;8.276;2022-07-05T04:32:47;16.90;1.00
9949;DHT22;5013;51.840;8.276;2022-07-05T04:38:35;16.70;22.40
9949;DHT22;5013;51.840;8.276;2022-07-05T04:41:00;16.70;99.90
9949;DHT22;5013;51.840;8.276;2022-07-05T04:43:26;16.80;53.30
9949;DHT22;5013;51.840;8.276;2022-07-05T04:49:14;16.70;1.00
9949;DHT22;5013;51.840;8.276;2022-07-05T04:51:39;16.80;1.00
9949;DHT22;5013;51.840;8.276;2022-07-05T04:54:05;16.90;1.00
9949;DHT22;5013;51.840;8.276;2022-07-05T04:56:31;16.90;99.90
9949;DHT22;5013;51.840;8.276;2022-07-05T04:58:56;16.90;99.90
9949;DHT22;5013;51.840;8.276;2022-07-05T05:01:22;17.00;1.00
9949;DHT22;5013;51.840;8.276;2022-07-05T05:03:48;17.00;99.90
9949;DHT22;5013;51.840;8.276;2022-07-05T05:06:13;17.10;99.90
9949;DHT22;5013;51.840;8.276;2022-07-05T05:08:40;17.20;99.90
9949;DHT22;5013;51.840;8.276;2022-07-05T05:11:07;17.40;12.60
9949;DHT22;5013;51.840;8.276;2022-07-05T05:13:33;17.50;1.00
9949;DHT22;5013;51.840;8.276;2022-07-05T05:15:59;17.40;1.00
9949;DHT22;5013;51.840;8.276;2022-07-05T05:18:24;17.50;99.90
9949;DHT22;5013;51.840;8.276;2022-07-05T05:20:53;17.60;1.00
9949;DHT22;5013;51.840;8.276;2022-07-05T05:26:42;17.90;1.00
9949;DHT22;5013;51.840;8.276;2022-07-05T05:29:07;17.90;1.00
9949;DHT22;5013;51.840;8.276;2022-07-05T05:31:33;17.90;1.00
9949;DHT22;5013;51.840;8.276;2022-07-05T05:33:59;18.00;1.00
9949;DHT22;5013;51.840;8.276;2022-07-05T05:36:24;18.10;1.00
9949;DHT22;5013;51.840;8.276;2022-07-05T05:38:50;18.40;1.00
9949;DHT22;5013;51.840;8.276;2022-07-05T05:41:16;18.40;1.00
9949;DHT22;5013;51.840;8.276;2022-07-05T05:43:41;18.40;99.90
9949;DHT22;5013;51.840;8.276;2022-07-05T05:46:07;18.40;99.90
9949;DHT22;5013;51.840;8.276;2022-07-05T05:48:33;18.40;1.00
9949;DHT22;5013;51.840;8.276;2022-07-05T05:50:58;18.50;99.90
9949;DHT22;5013;51.840;8.276;2022-07-05T05:53:26;18.70;99.90
9949;DHT22;5013;51.840;8.276;2022-07-05T05:55:51;18.80;18.30
9949;DHT22;5013;51.840;8.276;2022-07-05T05:58:22;18.80;1.00
9949;DHT22;5013;51.840;8.276;2022-07-05T06:00:49;18.70;99.90
9949;DHT22;5013;51.840;8.276;2022-07-05T06:03:18;18.60;99.90
9949;DHT22;5013;51.840;8.276;2022-07-05T06:05:44;18.50;83.50
9949;DHT22;5013;51.840;8.276;2022-07-05T06:08:10;18.50;99.90
9949;DHT22;5013;51.840;8.276;2022-07-05T06:10:37;18.60;99.90
9949;DHT22;5013;51.840;8.276;2022-07-05T06:13:06;18.70;99.90
9949;DHT22;5013;51.840;8.276;2022-07-05T06:15:33;18.90;99.90
9949;DHT22;5013;51.840;8.276;2022-07-05T06:17:59;19.10;1.00
9949;DHT22;5013;51.840;8.276;2022-07-05T06:20:28;19.90;1.00
9949;DHT22;5013;51.840;8.276;2022-07-05T06:22:55;20.60;99.90
9949;DHT22;5013;51.840;8.276;2022-07-05T06:25:21;21.20;99.90
9949;DHT22;5013;51.840;8.276;2022-07-05T06:30:18;22.10;99.90
9949;DHT22;5013;51.840;8.276;2022-07-05T06:32:45;22.00;26.10
9949;DHT22;5013;51.840;8.276;2022-07-05T06:35:12;22.10;28.70
9949;DHT22;5013;51.840;8.276;2022-07-05T06:37:46;22.20;1.00
9949;DHT22;5013;51.840;8.276;2022-07-05T06:40:14;22.60;1.00
9949;DHT22;5013;51.840;8.276;2022-07-05T06:42:42;22.70;1.00
9949;DHT22;5013;51.840;8.276;2022-07-05T06:45:08;22.90;1.00
9949;DHT22;5013;51.840;8.276;2022-07-05T06:47:34;22.90;1.00
9949;DHT22;5013;51.840;8.276;2022-07-05T06:50:01;23.30;1.00
9949;DHT22;5013;51.840;8.276;2022-07-05T06:52:28;23.70;1.00
9949;DHT22;5013;51.840;8.276;2022-07-05T06:54:54;23.90;1.00
9949;DHT22;5013;51.840;8.276;2022-07-05T06:57:21;23.90;1.00
9949;DHT22;5013;51.840;8.276;2022-07-05T06:59:47;23.90;1.00
9949;DHT22;5013;51.840;8.276;2022-07-05T07:02:13;23.80;1.00
9949;DHT22;5013;51.840;8.276;2022-07-05T07:04:39;23.50;1.00
9949;DHT22;5013;51.840;8.276;2022-07-05T07:07:05;23.40;1.00
9949;DHT22;5013;51.840;8.276;2022-07-05T07:09:59;23.50;1.00
9949;DHT22;5013;51.840;8.276;2022-07-05T07:12:26;23.50;1.00
9949;DHT22;5013;51.840;8.276;2022-07-05T07:14:52;23.60;1.00
9949;DHT22;5013;51.840;8.276;2022-07-05T07:17:17;23.70;1.00
9949;DHT22;5013;51.840;8.276;2022-07-05T07:19:43;23.70;1.00
9949;DHT22;5013;51.840;8.276;2022-07-05T07:22:09;23.70;1.00
9949;DHT22;5013;51.840;8.276;2022-07-05T07:27:57;23.50;1.00
9949;DHT22;5013;51.840;8.276;2022-07-05T07:30:25;23.50;1.00
9949;DHT22;5013;51.840;8.276;2022-07-05T07:32:54;23.80;1.00
9949;DHT22;5013;51.840;8.276;2022-07-05T07:35:20;23.70;1.00
9949;DHT22;5013;51.840;8.276;2022-07-05T07:37:46;23.80;1.00
9949;DHT22;5013;51.840;8.276;2022-07-05T07:40:12;23.90;1.00
9949;DHT22;5013;51.840;8.276;2022-07-05T07:42:39;24.30;1.00
9949;DHT22;5013;51.840;8.276;2022-07-05T07:51:40;23.40;1.00
9949;DHT22;5013;51.840;8.276;2022-07-05T07:54:06;23.40;1.00
9949;DHT22;5013;51.840;8.276;2022-07-05T07:56:32;23.80;1.00
9949;DHT22;5013;51.840;8.276;2022-07-05T07:58:58;23.80;1.00
9949;DHT22;5013;51.840;8.276;2022-07-05T08:01:24;23.70;1.00
9949;DHT22;5013;51.840;8.276;2022-07-05T08:03:50;23.60;1.00
9949;DHT22;5013;51.840;8.276;2022-07-05T08:06:16;23.80;1.00
9949;DHT22;5013;51.840;8.276;2022-07-05T08:08:43;23.60;1.00
9949;DHT22;5013;51.840;8.276;2022-07-05T08:11:14;23.50;1.00
9949;DHT22;5013;51.840;8.276;2022-07-05T08:13:41;23.70;1.00
9949;DHT22;5013;51.840;8.276;2022-07-05T08:16:09;24.10;1.00
9949;DHT22;5013;51.840;8.276;2022-07-05T08:18:35;23.90;1.00
9949;DHT22;5013;51.840;8.276;2022-07-05T08:21:19;23.90;1.00
9949;DHT22;5013;51.840;8.276;2022-07-05T08:23:58;24.20;1.00
9949;DHT22;5013;51.840;8.276;2022-07-05T08:26:25;24.70;1.00
9949;DHT22;5013;51.840;8.276;2022-07-05T08:29:10;24.80;1.00
9949;DHT22;5013;51.840;8.276;2022-07-05T08:31:47;24.70;1.00
9949;DHT22;5013;51.840;8.276;2022-07-05T08:34:14;24.20;1.00
9949;DHT22;5013;51.840;8.276;2022-07-05T08:36:40;24.50;1.00
9949;DHT22;5013;51.840;8.276;2022-07-05T08:39:07;24.30;1.00
9949;DHT22;5013;51.840;8.276;2022-07-05T08:41:39;24.30;1.00
9949;DHT22;5013;51.840;8.276;2022-07-05T08:44:05;24.50;1.00
9949;DHT22;5013;51.840;8.276;2022-07-05T08:46:32;24.20;1.00
9949;DHT22;5013;51.840;8.276;2022-07-05T08:49:00;23.90;1.00
9949;DHT22;5013;51.840;8.276;2022-07-05T08:51:28;23.60;1.00
9949;DHT22;5013;51.840;8.276;2022-07-05T08:53:54;23.20;1.00
9949;DHT22;5013;51.840;8.276;2022-07-05T08:56:23;22.70;1.00
9949;DHT22;5013;51.840;8.276;2022-07-05T08:58:49;22.70;1.00
9949;DHT22;5013;51.840;8.276;2022-07-05T09:01:15;22.70;1.00
9949;DHT22;5013;51.840;8.276;2022-07-05T09:03:51;23.00;1.00
9949;DHT22;5013;51.840;8.276;2022-07-05T09:06:22;23.10;1.00
9949;DHT22;5013;51.840;8.276;2022-07-05T09:08:51;23.10;1.00
9949;DHT22;5013;51.840;8.276;2022-07-05T09:11:23;23.70;1.00
9949;DHT22;5013;51.840;8.276;2022-07-05T09:13:50;23.70;1.00
9949;DHT22;5013;51.840;8.276;2022-07-05T09:16:16;24.10;1.00
9949;DHT22;5013;51.840;8.276;2022-07-05T09:18:53;23.90;1.00
9949;DHT22;5013;51.840;8.276;2022-07-05T09:21:26;24.70;1.00
9949;DHT22;5013;51.840;8.276;2022-07-05T09:24:00;25.30;1.00
9949;DHT22;5013;51.840;8.276;2022-07-05T09:26:36;25.40;1.00
9949;DHT22;5013;51.840;8.276;2022-07-05T09:29:09;24.90;1.00
9949;DHT22;5013;51.840;8.276;2022-07-05T09:31:37;24.40;1.00
9949;DHT22;5013;51.840;8.276;2022-07-05T09:37:02;23.90;1.00
9949;DHT22;5013;51.840;8.276;2022-07-05T09:42:21;23.90;1.00
9949;DHT22;5013;51.840;8.276;2022-07-05T09:47:18;24.10;1.00
9949;DHT22;5013;51.840;8.276;2022-07-05T09:49:47;24.00;1.00
9949;DHT22;5013;51.840;8.276;2022-07-05T09:55:20;25.00;1.00
9949;DHT22;5013;51.840;8.276;2022-07-05T10:01:28;25.10;1.00
9949;DHT22;5013;51.840;8.276;2022-07-05T10:03:59;25.50;1.00
9949;DHT22;5013;51.840;8.276;2022-07-05T10:06:27;25.20;1.00
9949;DHT22;5013;51.840;8.276;2022-07-05T10:08:53;24.90;1.00
9949;DHT22;5013;51.840;8.276;2022-07-05T10:11:20;25.20;1.00
9949;DHT22;5013;51.840;8.276;2022-07-05T10:13:53;25.10;1.00
9949;DHT22;5013;51.840;8.276;2022-07-05T10:16:22;25.00;1.00
9949;DHT22;5013;51.840;8.276;2022-07-05T10:18:52;24.90;1.00
9949;DHT22;5013;51.840;8.276;2022-07-05T10:21:19;25.10;1.00
9949;DHT22;5013;51.840;8.276;2022-07-05T10:23:47;25.20;1.00
9949;DHT22;5013;51.840;8.276;2022-07-05T10:26:14;25.40;1.00
9949;DHT22;5013;51.840;8.276;2022-07-05T10:28:41;25.60;1.00
9949;DHT22;5013;51.840;8.276;2022-07-05T10:31:09;26.10;1.00
9949;DHT22;5013;51.840;8.276;2022-07-05T10:33:36;26.30;1.00
9949;DHT22;5013;51.840;8.276;2022-07-05T10:36:03;26.30;1.00
9949;DHT22;5013;51.840;8.276;2022-07-05T10:38:29;26.10;1.00
9949;DHT22;5013;51.840;8.276;2022-07-05T10:40:59;25.80;1.00
9949;DHT22;5013;51.840;8.276;2022-07-05T10:43:27;25.40;1.00
9949;DHT22;5013;51.840;8.276;2022-07-05T10:45:53;24.50;1.00
9949;DHT22;5013;51.840;8.276;2022-07-05T10:48:23;24.30;1.00
9949;DHT22;5013;51.840;8.276;2022-07-05T10:50:58;23.70;1.00
9949;DHT22;5013;51.840;8.276;2022-07-05T10:53:59;23.70;1.00
9949;DHT22;5013;51.840;8.276;2022-07-05T10:56:14;23.70;1.00
9949;DHT22;5013;51.840;8.276;2022-07-05T10:58:47;23.50;1.00
9949;DHT22;5013;51.840;8.276;2022-07-05T11:03:48;23.90;1.00
9949;DHT22;5013;51.840;8.276;2022-07-05T11:06:24;24.60;1.00
9949;DHT22;5013;51.840;8.276;2022-07-05T11:11:36;25.30;1.00
9949;DHT22;5013;51.840;8.276;2022-07-05T11:14:04;24.60;1.00
9949;DHT22;5013;51.840;8.276;2022-07-05T11:16:35;24.60;1.00
9949;DHT22;5013;51.840;8.276;2022-07-05T11:19:07;25.10;1.00
9949;DHT22;5013;51.840;8.276;2022-07-05T11:21:33;25.70;1.00
9949;DHT22;5013;51.840;8.276;2022-07-05T11:24:18;25.70;1.00
9949;DHT22;5013;51.840;8.276;2022-07-05T11:26:46;25.40;1.00
9949;DHT22;5013;51.840;8.276;2022-07-05T11:32:35;25.10;1.00
9949;DHT22;5013;51.840;8.276;2022-07-05T11:38:23;25.80;1.00
9949;DHT22;5013;51.840;8.276;2022-07-05T11:40:49;26.00;1.00
9949;DHT22;5013;51.840;8.276;2022-07-05T11:43:28;26.10;1.00
9949;DHT22;5013;51.840;8.276;2022-07-05T11:46:00;26.20;1.00
9949;DHT22;5013;51.840;8.276;2022-07-05T11:48:28;26.30;1.00
9949;DHT22;5013;51.840;8.276;2022-07-05T11:50:54;25.60;1.00
9949;DHT22;5013;51.840;8.276;2022-07-05T11:53:30;25.40;1.00
9949;DHT22;5013;51.840;8.276;2022-07-05T11:56:00;25.30;1.00
9949;DHT22;5013;51.840;8.276;2022-07-05T11:58:33;25.10;1.00
9949;DHT22;5013;51.840;8.276;2022-07-05T12:00:59;25.30;1.00
9949;DHT22;5013;51.840;8.276;2022-07-05T12:03:25;25.50;1.00
9949;DHT22;5013;51.840;8.276;2022-07-05T12:05:51;25.70;1.00
9949;DHT22;5013;51.840;8.276;2022-07-05T12:08:27;25.90;1.00
9949;DHT22;5013;51.840;8.276;2022-07-05T12:10:52;25.70;1.00
9949;DHT22;5013;51.840;8.276;2022-07-05T12:17:33;26.00;1.00
9949;DHT22;5013;51.840;8.276;2022-07-05T12:23:26;25.80;1.00
9949;DHT22;5013;51.840;8.276;2022-07-05T12:25:53;26.00;1.00
9949;DHT22;5013;51.840;8.276;2022-07-05T12:28:18;25.80;1.00
9949;DHT22;5013;51.840;8.276;2022-07-05T12:30:44;25.30;1.00
9949;DHT22;5013;51.840;8.276;2022-07-05T12:33:10;25.20;1.00
9949;DHT22;5013;51.840;8.276;2022-07-05T12:35:45;25.20;1.00
9949;DHT22;5013;51.840;8.276;2022-07-05T12:38:16;25.20;1.00
9949;DHT22;5013;51.840;8.276;2022-07-05T12:40:46;25.00;1.00
9949;DHT22;5013;51.840;8.276;2022-07-05T12:46:40;25.50;1.00
9949;DHT22;5013;51.840;8.276;2022-07-05T12:49:07;25.40;1.00
9949;DHT22;5013;51.840;8.276;2022-07-05T12:51:34;25.20;1.00
9949;DHT22;5013;51.840;8.276;2022-07-05T12:54:01;25.30;1.00
9949;DHT22;5013;51.840;8.276;2022-07-05T12:56:50;25.10;1.00
9949;DHT22;5013;51.840;8.276;2022-07-05T12:59:35;25.20;1.00
9949;DHT22;5013;51.840;8.276;2022-07-05T13:02:02;25.20;1.00
9949;DHT22;5013;51.840;8.276;2022-07-05T13:04:28;25.20;1.00
9949;DHT22;5013;51.840;8.276;2022-07-05T13:06:58;25.60;1.00
9949;DHT22;5013;51.840;8.276;2022-07-05T13:12:12;25.80;1.00
9949;DHT22;5013;51.840;8.276;2022-07-05T13:14:41;25.90;1.00
9949;DHT22;5013;51.840;8.276;2022-07-05T13:17:09;26.00;1.00
9949;DHT22;5013;51.840;8.276;2022-07-05T13:19:35;25.90;1.00
9949;DHT22;5013;51.840;8.276;2022-07-05T13:22:01;25.70;1.00
9949;DHT22;5013;51.840;8.276;2022-07-05T13:24:28;25.80;1.00
9949;DHT22;5013;51.840;8.276;2022-07-05T13:26:54;25.90;1.00
9949;DHT22;5013;51.840;8.276;2022-07-05T13:29:20;26.20;1.00
9949;DHT22;5013;51.840;8.276;2022-07-05T13:31:46;26.20;1.00
9949;DHT22;5013;51.840;8.276;2022-07-05T13:34:12;26.10;1.00
9949;DHT22;5013;51.840;8.276;2022-07-05T13:36:39;26.20;1.00
9949;DHT22;5013;51.840;8.276;2022-07-05T13:39:05;26.20;1.00
9949;DHT22;5013;51.840;8.276;2022-07-05T13:41:30;26.00;1.00
9949;DHT22;5013;51.840;8.276;2022-07-05T13:43:58;25.80;1.00
9949;DHT22;5013;51.840;8.276;2022-07-05T13:46:24;25.80;1.00
9949;DHT22;5013;51.840;8.276;2022-07-05T13:48:49;25.80;1.00
9949;DHT22;5013;51.840;8.276;2022-07-05T13:51:15;25.70;1.00
9949;DHT22;5013;51.840;8.276;2022-07-05T13:53:41;25.70;1.00
9949;DHT22;5013;51.840;8.276;2022-07-05T13:56:07;25.50;1.00
9949;DHT22;5013;51.840;8.276;2022-07-05T13:58:33;25.40;1.00
9949;DHT22;5013;51.840;8.276;2022-07-05T14:00:59;25.10;1.00
9949;DHT22;5013;51.840;8.276;2022-07-05T14:03:25;25.40;1.00
9949;DHT22;5013;51.840;8.276;2022-07-05T14:05:51;25.60;1.00
9949;DHT22;5013;51.840;8.276;2022-07-05T14:08:17;25.70;1.00
9949;DHT22;5013;51.840;8.276;2022-07-05T14:10:53;25.80;1.00
9949;DHT22;5013;51.840;8.276;2022-07-05T14:13:20;25.60;1.00
9949;DHT22;5013;51.840;8.276;2022-07-05T14:15:47;25.40;1.00
9949;DHT22;5013;51.840;8.276;2022-07-05T14:18:14;25.30;1.00
9949;DHT22;5013;51.840;8.276;2022-07-05T14:20:40;25.60;1.00
9949;DHT22;5013;51.840;8.276;2022-07-05T14:23:06;25.60;1.00
9949;DHT22;5013;51.840;8.276;2022-07-05T14:25:32;25.30;1.00
9949;DHT22;5013;51.840;8.276;2022-07-05T14:27:57;25.30;1.00
9949;DHT22;5013;51.840;8.276;2022-07-05T14:30:23;25.50;1.00
9949;DHT22;5013;51.840;8.276;2022-07-05T14:32:49;25.70;1.00
9949;DHT22;5013;51.840;8.276;2022-07-05T14:35:16;25.70;1.00
9949;DHT22;5013;51.840;8.276;2022-07-05T14:37:41;25.70;1.00
9949;DHT22;5013;51.840;8.276;2022-07-05T14:40:08;25.80;1.00
9949;DHT22;5013;51.840;8.276;2022-07-05T14:42:33;25.80;1.00
9949;DHT22;5013;51.840;8.276;2022-07-05T14:44:59;26.00;1.00
9949;DHT22;5013;51.840;8.276;2022-07-05T14:47:25;26.30;1.00
9949;DHT22;5013;51.840;8.276;2022-07-05T14:49:53;26.60;1.00
9949;DHT22;5013;51.840;8.276;2022-07-05T14:52:20;26.50;1.00
9949;DHT22;5013;51.840;8.276;2022-07-05T14:54:46;26.20;1.00
9949;DHT22;5013;51.840;8.276;2022-07-05T14:57:12;25.90;1.00
9949;DHT22;5013;51.840;8.276;2022-07-05T14:59:38;25.60;1.00
9949;DHT22;5013;51.840;8.276;2022-07-05T15:02:03;25.30;1.00
9949;DHT22;5013;51.840;8.276;2022-07-05T15:04:31;25.20;1.00
9949;DHT22;5013;51.840;8.276;2022-07-05T15:06:57;25.20;1.00
9949;DHT22;5013;51.840;8.276;2022-07-05T15:09:23;25.20;1.00
9949;DHT22;5013;51.840;8.276;2022-07-05T15:11:49;25.30;1.00
9949;DHT22;5013;51.840;8.276;2022-07-05T15:14:14;25.30;1.00
9949;DHT22;5013;51.840;8.276;2022-07-05T15:16:40;25.20;1.00
9949;DHT22;5013;51.840;8.276;2022-07-05T15:19:07;25.00;1.00
9949;DHT22;5013;51.840;8.276;2022-07-05T15:21:32;24.90;1.00
9949;DHT22;5013;51.840;8.276;2022-07-05T15:23:58;24.90;1.00
9949;DHT22;5013;51.840;8.276;2022-07-05T15:26:25;25.10;1.00
9949;DHT22;5013;51.840;8.276;2022-07-05T15:28:56;25.10;1.00
9949;DHT22;5013;51.840;8.276;2022-07-05T15:31:30;25.00;1.00
9949;DHT22;5013;51.840;8.276;2022-07-05T15:33:57;25.00;1.00
9949;DHT22;5013;51.840;8.276;2022-07-05T15:36:24;25.00;1.00
9949;DHT22;5013;51.840;8.276;2022-07-05T15:38:53;25.10;1.00
9949;DHT22;5013;51.840;8.276;2022-07-05T15:41:20;25.00;1.00
9949;DHT22;5013;51.840;8.276;2022-07-05T15:43:46;25.10;1.00
9949;DHT22;5013;51.840;8.276;2022-07-05T15:46:12;25.00;1.00
9949;DHT22;5013;51.840;8.276;2022-07-05T15:48:38;25.10;1.00
9949;DHT22;5013;51.840;8.276;2022-07-05T15:51:04;25.40;1.00
9949;DHT22;5013;51.840;8.276;2022-07-05T15:53:31;25.50;1.00
9949;DHT22;5013;51.840;8.276;2022-07-05T15:55:58;25.20;1.00
9949;DHT22;5013;51.840;8.276;2022-07-05T15:58:30;25.10;1.00
9949;DHT22;5013;51.840;8.276;2022-07-05T16:00:57;24.90;1.00
9949;DHT22;5013;51.840;8.276;2022-07-05T16:03:25;24.90;1.00
9949;DHT22;5013;51.840;8.276;2022-07-05T16:05:51;24.70;1.00
9949;DHT22;5013;51.840;8.276;2022-07-05T16:08:18;24.50;1.00
9949;DHT22;5013;51.840;8.276;2022-07-05T16:10:44;24.50;1.00
9949;DHT22;5013;51.840;8.276;2022-07-05T16:13:10;24.40;1.00
9949;DHT22;5013;51.840;8.276;2022-07-05T16:15:38;24.30;1.00
9949;DHT22;5013;51.840;8.276;2022-07-05T16:18:22;24.30;1.00
9949;DHT22;5013;51.840;8.276;2022-07-05T16:20:49;24.30;1.00
9949;DHT22;5013;51.840;8.276;2022-07-05T16:23:15;24.30;1.00
9949;DHT22;5013;51.840;8.276;2022-07-05T16:25:40;24.40;1.00
9949;DHT22;5013;51.840;8.276;2022-07-05T16:31:28;24.20;1.00
9949;DHT22;5013;51.840;8.276;2022-07-05T16:33:54;24.20;1.00
9949;DHT22;5013;51.840;8.276;2022-07-05T16:36:22;24.10;1.00
9949;DHT22;5013;51.840;8.276;2022-07-05T16:38:49;24.10;1.00
9949;DHT22;5013;51.840;8.276;2022-07-05T16:41:16;24.00;1.00
9949;DHT22;5013;51.840;8.276;2022-07-05T16:43:43;23.90;1.00
9949;DHT22;5013;51.840;8.276;2022-07-05T16:46:11;23.90;1.00
9949;DHT22;5013;51.840;8.276;2022-07-05T16:48:38;23.90;1.00
9949;DHT22;5013;51.840;8.276;2022-07-05T16:51:09;23.90;1.00
9949;DHT22;5013;51.840;8.276;2022-07-05T16:53:35;23.70;1.00
9949;DHT22;5013;51.840;8.276;2022-07-05T16:56:06;23.60;1.00
9949;DHT22;5013;51.840;8.276;2022-07-05T16:58:36;23.60;1.00
9949;DHT22;5013;51.840;8.276;2022-07-05T17:01:05;23.40;1.00
9949;DHT22;5013;51.840;8.276;2022-07-05T17:03:33;23.20;1.00
9949;DHT22;5013;51.840;8.276;2022-07-05T17:05:58;23.20;1.00
9949;DHT22;5013;51.840;8.276;2022-07-05T17:08:24;23.10;1.00
9949;DHT22;5013;51.840;8.276;2022-07-05T17:10:50;23.30;1.00
9949;DHT22;5013;51.840;8.276;2022-07-05T17:13:16;23.50;1.00
9949;DHT22;5013;51.840;8.276;2022-07-05T17:15:42;23.60;1.00
9949;DHT22;5013;51.840;8.276;2022-07-05T17:21:30;23.40;1.00
9949;DHT22;5013;51.840;8.276;2022-07-05T17:23:55;23.20;1.00
9949;DHT22;5013;51.840;8.276;2022-07-05T17:26:23;23.10;1.00